Time;durP1;ratioP1;P1;durP2;ratioP2;P2;SDS_P1;SDS_P2;PMS_P1;PMS_P2;Temp;Humidity;BMP_temperature;BMP_pressure;BME280_temperature;BME280_humidity;BME280_pressure;Samples;Min_cycle;Max_cycle;Signal;HPM_P1;HPM_P2
2022/04/27 00:01:44;;;;;;;12.93;7.05;;;7.00;99.90;;;;;;4907489;29;20052;-77
2022/04/27 00:04:10;;;;;;;14.50;7.20;;;7.10;99.90;;;;;;4893249;29;20833;-76
2022/04/27 00:06:35;;;;;;;10.95;7.22;;;7.10;99.90;;;;;;4893646;29;20040;-76
2022/04/27 00:09:01;;;;;;;20.00;7.43;;;7.20;99.90;;;;;;4905504;28;20043;-77
2022/04/27 00:11:26;;;;;;;20.65;8.25;;;7.20;99.90;;;;;;4897475;29;20120;-76
2022/04/27 00:13:52;;;;;;;12.65;7.60;;;7.10;99.90;;;;;;4877393;28;20047;-76
2022/04/27 00:16:17;;;;;;;13.35;7.55;;;7.00;99.90;;;;;;4909024;28;20423;-77
2022/04/27 00:18:43;;;;;;;15.30;7.63;;;7.20;99.90;;;;;;4902422;29;20039;-76
2022/04/27 00:21:08;;;;;;;11.50;7.82;;;7.10;99.90;;;;;;4876229;29;20420;-77
2022/04/27 00:23:34;;;;;;;9.77;7.40;;;7.10;99.90;;;;;;4908099;29;20509;-76
2022/04/27 00:26:00;;;;;;;15.18;7.18;;;7.10;99.90;;;;;;4887521;29;20150;-76
2022/04/27 00:28:25;;;;;;;10.43;6.97;;;7.10;99.90;;;;;;4892276;29;20040;-76
2022/04/27 00:30:51;;;;;;;15.13;7.88;;;7.20;99.90;;;;;;4904583;28;20032;-76
2022/04/27 00:33:16;;;;;;;14.23;6.43;;;7.10;99.90;;;;;;4908292;28;20063;-76
2022/04/27 00:35:42;;;;;;;13.55;8.02;;;7.20;99.90;;;;;;4897385;29;20119;-76
2022/04/27 00:38:08;;;;;;;11.18;7.22;;;7.20;99.90;;;;;;4907930;28;20046;-76
2022/04/27 00:40:33;;;;;;;13.80;6.70;;;7.20;99.90;;;;;;4874920;29;20033;-76
2022/04/27 00:42:59;;;;;;;10.50;6.97;;;7.20;99.90;;;;;;4904341;28;20142;-76
2022/04/27 00:45:24;;;;;;;13.35;7.38;;;7.20;99.90;;;;;;4887861;29;20516;-76
2022/04/27 00:47:50;;;;;;;12.50;7.10;;;7.20;99.90;;;;;;4904695;28;20480;-76
2022/04/27 00:50:15;;;;;;;12.05;7.32;;;7.10;99.90;;;;;;4905477;29;20139;-76
2022/04/27 00:52:41;;;;;;;10.48;6.93;;;7.10;99.90;;;;;;4891453;28;20035;-76
2022/04/27 00:55:08;;;;;;;12.00;7.03;;;7.20;99.90;;;;;;4876119;28;20373;-76
2022/04/27 00:57:34;;;;;;;8.43;6.80;;;7.20;99.90;;;;;;4907921;29;20221;-76
2022/04/27 00:59:59;;;;;;;10.57;6.97;;;7.20;99.90;;;;;;4894463;28;20694;-76
2022/04/27 01:02:25;;;;;;;12.90;7.50;;;7.20;99.90;;;;;;4909966;28;20047;-76
2022/04/27 01:04:50;;;;;;;10.52;7.45;;;7.10;99.90;;;;;;4908678;29;20040;-76
2022/04/27 01:07:16;;;;;;;12.38;7.57;;;7.20;99.90;;;;;;4900022;29;20556;-76
2022/04/27 01:09:42;;;;;;;9.32;6.78;;;7.20;99.90;;;;;;4894895;28;20036;-76
2022/04/27 01:12:08;;;;;;;9.73;6.97;;;7.10;99.90;;;;;;4870902;29;20044;-77
2022/04/27 01:14:48;;;;;;;12.98;7.00;;;7.10;99.90;;;;;;4907636;28;20028;-76
2022/04/27 01:17:13;;;;;;;12.00;7.22;;;7.10;99.90;;;;;;4907350;29;20040;-77
2022/04/27 01:19:39;;;;;;;9.07;6.75;;;7.00;99.90;;;;;;4875221;28;20495;-77
2022/04/27 01:22:04;;;;;;;12.55;7.00;;;7.10;99.90;;;;;;4905032;29;20525;-76
2022/04/27 01:24:30;;;;;;;16.50;7.00;;;7.10;99.90;;;;;;4876185;28;20563;-76
2022/04/27 01:26:56;;;;;;;12.52;7.40;;;7.00;99.90;;;;;;4898518;29;20052;-76
2022/04/27 01:29:22;;;;;;;11.63;6.63;;;7.00;99.90;;;;;;4902648;28;20036;-76
2022/04/27 01:31:48;;;;;;;10.23;7.50;;;7.00;99.90;;;;;;4900435;29;20413;-76
2022/04/27 01:34:14;;;;;;;11.60;7.30;;;7.00;99.90;;;;;;4889795;29;20033;-76
2022/04/27 01:36:39;;;;;;;15.07;7.78;;;7.00;99.90;;;;;;4890431;28;20043;-76
2022/04/27 01:39:05;;;;;;;13.52;7.40;;;6.90;99.90;;;;;;4890578;28;20088;-76
2022/04/27 01:41:31;;;;;;;12.25;7.55;;;6.80;99.90;;;;;;4874012;28;20035;-76
2022/04/27 01:43:59;;;;;;;12.38;7.30;;;6.80;99.90;;;;;;4888365;28;20156;-76
2022/04/27 01:46:26;;;;;;;11.82;8.18;;;6.80;99.90;;;;;;4900732;28;20032;-77
2022/04/27 01:48:51;;;;;;;11.38;7.53;;;6.80;99.90;;;;;;4902215;28;20060;-77
2022/04/27 01:51:18;;;;;;;11.20;7.25;;;6.70;99.90;;;;;;4904248;29;20067;-76
2022/04/27 01:56:28;;;;;;;10.82;7.78;;;6.60;99.90;;;;;;4901780;28;20084;-76
2022/04/27 01:58:54;;;;;;;10.13;7.95;;;6.60;99.90;;;;;;4903801;29;20465;-77
2022/04/27 02:01:21;;;;;;;11.10;7.47;;;6.50;99.90;;;;;;4902658;29;20361;-76
2022/04/27 02:03:47;;;;;;;10.30;7.93;;;6.40;99.90;;;;;;4899109;29;20435;-76
2022/04/27 02:06:14;;;;;;;13.68;8.40;;;6.40;99.90;;;;;;4875159;29;20028;-76
2022/04/27 02:08:39;;;;;;;10.10;7.05;;;6.40;99.90;;;;;;4888176;28;20425;-77
2022/04/27 02:11:05;;;;;;;17.63;7.93;;;6.30;99.90;;;;;;4899904;28;20123;-76
2022/04/27 02:13:30;;;;;;;9.95;7.65;;;6.30;99.90;;;;;;4906481;28;20119;-76
2022/04/27 02:15:56;;;;;;;14.57;7.57;;;6.20;99.90;;;;;;4909707;28;20028;-76
2022/04/27 02:18:21;;;;;;;16.25;7.68;;;6.20;99.90;;;;;;4903640;29;20111;-76
2022/04/27 02:20:47;;;;;;;14.80;7.80;;;6.20;99.90;;;;;;4901404;29;20155;-76
2022/04/27 02:23:13;;;;;;;9.52;7.68;;;6.10;99.90;;;;;;4887023;28;20392;-76
2022/04/27 02:25:39;;;;;;;12.25;7.70;;;6.10;99.90;;;;;;4891195;29;20039;-77
2022/04/27 02:28:05;;;;;;;13.93;8.20;;;6.00;99.90;;;;;;4921943;28;20043;-76
2022/04/27 02:30:32;;;;;;;15.90;8.32;;;6.00;99.90;;;;;;4892332;29;20091;-76
2022/04/27 02:32:58;;;;;;;11.48;8.20;;;5.90;99.90;;;;;;4904551;28;20036;-76
2022/04/27 02:35:23;;;;;;;9.95;8.18;;;5.90;99.90;;;;;;4899961;29;20028;-76
2022/04/27 02:37:49;;;;;;;15.70;8.20;;;5.90;99.90;;;;;;4887812;29;20135;-77
2022/04/27 02:40:14;;;;;;;14.55;7.57;;;5.80;99.90;;;;;;4883562;29;20402;-76
2022/04/27 02:42:40;;;;;;;15.02;8.18;;;5.80;99.90;;;;;;4887733;29;20028;-76
2022/04/27 02:45:05;;;;;;;10.93;8.45;;;5.70;99.90;;;;;;4914976;28;20046;-76
2022/04/27 02:47:31;;;;;;;14.88;8.73;;;5.80;99.90;;;;;;4907779;28;20083;-76
2022/04/27 02:52:40;;;;;;;18.85;8.13;;;5.70;99.90;;;;;;4901855;28;20103;-76
2022/04/27 02:55:06;;;;;;;14.43;8.63;;;5.70;99.90;;;;;;4885286;29;20072;-76
2022/04/27 02:57:32;;;;;;;16.02;8.40;;;5.70;99.90;;;;;;4891289;29;20036;-78
2022/04/27 02:59:57;;;;;;;16.63;9.68;;;5.70;99.90;;;;;;4903574;29;20036;-78
2022/04/27 03:02:23;;;;;;;18.35;9.07;;;5.60;99.90;;;;;;4887279;28;20588;-78
2022/04/27 03:04:48;;;;;;;14.90;8.55;;;5.70;99.90;;;;;;4904268;29;20400;-78
2022/04/27 03:07:14;;;;;;;13.80;8.43;;;5.70;99.90;;;;;;4905284;29;20036;-78
2022/04/27 03:09:39;;;;;;;16.20;8.48;;;5.60;99.90;;;;;;4909201;28;20055;-78
2022/04/27 03:12:05;;;;;;;14.85;8.73;;;5.60;99.90;;;;;;4904823;28;20028;-78
2022/04/27 03:14:31;;;;;;;15.45;10.35;;;5.60;99.90;;;;;;4893992;28;20060;-78
2022/04/27 03:16:56;;;;;;;14.48;9.48;;;5.60;99.90;;;;;;4893862;28;20031;-78
2022/04/27 03:19:22;;;;;;;17.63;9.13;;;5.60;99.90;;;;;;4896447;29;20351;-78
2022/04/27 03:21:48;;;;;;;16.10;9.15;;;5.60;99.90;;;;;;4878458;29;20077;-78
2022/04/27 03:24:13;;;;;;;16.25;9.48;;;5.60;99.90;;;;;;4904556;29;20448;-78
2022/04/27 03:26:39;;;;;;;15.43;8.60;;;5.70;99.90;;;;;;4908685;29;20040;-78
2022/04/27 03:29:05;;;;;;;15.02;9.07;;;5.60;99.90;;;;;;4901347;29;20043;-78
2022/04/27 03:31:30;;;;;;;13.23;8.68;;;5.60;99.90;;;;;;4905223;28;20040;-78
2022/04/27 03:33:56;;;;;;;23.73;9.18;;;5.60;99.90;;;;;;4892805;29;20032;-78
2022/04/27 03:36:21;;;;;;;14.93;9.13;;;5.60;99.90;;;;;;4897005;29;20036;-78
2022/04/27 03:38:50;;;;;;;17.30;8.88;;;5.60;99.90;;;;;;4903198;29;20035;-78
2022/04/27 03:41:20;;;;;;;17.23;9.70;;;5.60;99.90;;;;;;4903474;28;20056;-78
2022/04/27 03:43:46;;;;;;;14.40;9.00;;;5.50;99.90;;;;;;4908075;28;20042;-78
2022/04/27 03:46:12;;;;;;;13.98;8.65;;;5.50;99.90;;;;;;4907744;28;20485;-77
2022/04/27 03:48:37;;;;;;;16.55;8.65;;;5.40;99.90;;;;;;4910407;28;20036;-78
2022/04/27 03:51:04;;;;;;;13.50;9.65;;;5.40;99.90;;;;;;4905537;28;20488;-77
2022/04/27 03:53:29;;;;;;;16.02;9.80;;;5.40;99.90;;;;;;4908718;29;20127;-77
2022/04/27 03:55:55;;;;;;;15.75;9.55;;;5.30;99.90;;;;;;4905748;28;20167;-77
2022/04/27 03:58:20;;;;;;;23.27;10.82;;;5.30;99.90;;;;;;4893847;29;20098;-77
2022/04/27 04:00:46;;;;;;;13.93;9.50;;;5.30;99.90;;;;;;4903301;29;20044;-77
2022/04/27 04:03:12;;;;;;;13.93;9.32;;;5.30;99.90;;;;;;4877121;29;20062;-77
2022/04/27 04:05:37;;;;;;;15.95;9.55;;;5.20;99.90;;;;;;4908630;29;20036;-77
2022/04/27 04:08:03;;;;;;;19.60;10.35;;;5.20;99.90;;;;;;4904419;28;20040;-77
2022/04/27 04:10:29;;;;;;;21.17;10.38;;;5.20;99.90;;;;;;4900907;28;20036;-77
2022/04/27 04:12:54;;;;;;;17.35;10.98;;;5.20;99.90;;;;;;4892407;28;20092;-78
2022/04/27 04:15:20;;;;;;;13.27;10.07;;;5.20;99.90;;;;;;4893928;29;20040;-77
2022/04/27 04:17:46;;;;;;;21.15;11.07;;;5.10;99.90;;;;;;4908064;28;20024;-77
2022/04/27 04:20:13;;;;;;;19.90;10.82;;;5.10;99.90;;;;;;4905485;29;20378;-77
2022/04/27 04:22:39;;;;;;;22.27;13.05;;;5.00;99.90;;;;;;4909640;28;20083;-78
2022/04/27 04:30:33;;;;;;;21.42;11.23;;;4.90;99.90;;;;;;4894649;29;20035;-77
2022/04/27 04:32:59;;;;;;;17.75;11.00;;;4.90;99.90;;;;;;4889882;29;20028;-77
2022/04/27 04:35:24;;;;;;;16.70;11.52;;;4.90;99.90;;;;;;4909653;29;20043;-77
2022/04/27 04:37:50;;;;;;;18.27;11.57;;;4.90;99.90;;;;;;4923016;28;20068;-77
2022/04/27 04:40:15;;;;;;;19.15;11.02;;;4.80;99.90;;;;;;4920514;28;20060;-77
2022/04/27 04:42:41;;;;;;;22.77;13.05;;;4.70;99.90;;;;;;4892143;29;20031;-77
2022/04/27 04:45:08;;;;;;;20.30;12.32;;;4.60;99.90;;;;;;4889561;29;20040;-77
2022/04/27 04:47:33;;;;;;;21.60;13.38;;;4.60;99.90;;;;;;4908504;28;20059;-77
2022/04/27 04:49:59;;;;;;;21.25;12.70;;;4.70;99.90;;;;;;4893242;29;20480;-77
2022/04/27 04:52:24;;;;;;;23.40;13.32;;;4.70;99.90;;;;;;4902501;29;20041;-77
2022/04/27 04:54:50;;;;;;;18.80;13.05;;;4.70;99.90;;;;;;4906547;29;20032;-77
2022/04/27 04:57:15;;;;;;;23.70;14.40;;;4.90;99.90;;;;;;4902396;29;20060;-77
2022/04/27 04:59:41;;;;;;;27.38;14.35;;;4.90;99.90;;;;;;4903991;28;20567;-77
2022/04/27 05:02:06;;;;;;;25.08;15.75;;;4.90;99.90;;;;;;4888204;29;20510;-77
2022/04/27 05:04:32;;;;;;;25.25;14.38;;;5.00;99.90;;;;;;4893417;28;20043;-77
2022/04/27 05:06:57;;;;;;;24.92;16.55;;;5.10;99.90;;;;;;4876704;29;20040;-77
2022/04/27 05:09:23;;;;;;;25.27;16.85;;;5.20;99.90;;;;;;4892576;29;20072;-77
2022/04/27 05:11:48;;;;;;;22.80;15.85;;;5.30;99.90;;;;;;4875751;29;20040;-77
2022/04/27 05:14:14;;;;;;;25.02;17.02;;;5.30;99.90;;;;;;4892761;29;20032;-78
2022/04/27 05:16:39;;;;;;;26.13;17.35;;;5.40;99.90;;;;;;4907364;28;20400;-78
2022/04/27 05:19:05;;;;;;;25.70;17.05;;;5.40;99.90;;;;;;4892923;29;20099;-78
2022/04/27 05:21:30;;;;;;;29.30;18.27;;;5.40;99.90;;;;;;4877495;28;20116;-78
2022/04/27 05:23:56;;;;;;;25.50;16.88;;;5.60;99.90;;;;;;4919074;28;20086;-78
2022/04/27 05:26:22;;;;;;;26.70;15.77;;;5.70;99.90;;;;;;4876720;29;20511;-78
2022/04/27 05:34:16;;;;;;;24.38;16.38;;;6.10;99.90;;;;;;4905201;28;20499;-78
2022/04/27 05:36:41;;;;;;;28.10;16.27;;;6.10;99.90;;;;;;4891658;28;20032;-78
2022/04/27 05:39:07;;;;;;;27.38;16.70;;;6.10;99.90;;;;;;4903453;29;20037;-78
2022/04/27 05:41:34;;;;;;;24.95;16.08;;;6.20;99.90;;;;;;4908341;28;20032;-78
2022/04/27 05:44:02;;;;;;;31.40;15.82;;;6.30;99.90;;;;;;4876298;29;20112;-78
2022/04/27 05:46:28;;;;;;;27.80;16.95;;;6.50;99.90;;;;;;4902360;28;20032;-78
2022/04/27 05:48:53;;;;;;;22.90;15.00;;;6.50;99.90;;;;;;4865494;29;20048;-78
2022/04/27 05:51:19;;;;;;;28.70;15.75;;;6.60;99.90;;;;;;4886629;29;20046;-78
2022/04/27 05:53:45;;;;;;;27.45;16.10;;;6.90;99.90;;;;;;4897053;28;20047;-78
2022/04/27 05:56:10;;;;;;;26.45;15.52;;;7.00;99.90;;;;;;4904888;28;20071;-78
2022/04/27 05:58:37;;;;;;;24.42;17.10;;;7.00;99.90;;;;;;4907462;28;20083;-78
2022/04/27 06:01:02;;;;;;;24.77;15.48;;;7.20;99.90;;;;;;4890851;28;20433;-78
2022/04/27 06:03:28;;;;;;;24.45;15.50;;;7.30;99.90;;;;;;4875687;28;20034;-78
2022/04/27 06:05:53;;;;;;;24.52;16.05;;;7.40;99.90;;;;;;4889902;29;20316;-78
2022/04/27 06:08:19;;;;;;;22.40;15.05;;;7.50;99.90;;;;;;4890602;29;20103;-78
2022/04/27 06:10:44;;;;;;;22.00;13.88;;;7.40;99.90;;;;;;4889359;28;20039;-78
2022/04/27 06:13:10;;;;;;;18.75;13.50;;;7.70;99.90;;;;;;4884886;29;20087;-78
2022/04/27 06:15:35;;;;;;;22.65;14.32;;;7.90;99.90;;;;;;4908924;28;20389;-79
2022/04/27 06:18:01;;;;;;;18.73;13.68;;;8.20;99.90;;;;;;4889849;28;20142;-78
2022/04/27 06:20:26;;;;;;;22.67;13.07;;;8.20;99.90;;;;;;4901563;29;20131;-78
2022/04/27 06:22:52;;;;;;;17.98;12.75;;;8.20;99.90;;;;;;4887103;29;20047;-78
2022/04/27 06:25:19;;;;;;;12.90;10.00;;;8.40;99.90;;;;;;4876086;28;20040;-78
2022/04/27 06:27:44;;;;;;;17.98;11.38;;;8.50;99.90;;;;;;4902786;29;20040;-78
2022/04/27 06:30:10;;;;;;;22.92;13.93;;;8.70;99.90;;;;;;4888751;28;20123;-78
2022/04/27 06:32:36;;;;;;;20.67;12.63;;;8.90;99.90;;;;;;4902821;28;20798;-78
2022/04/27 06:35:01;;;;;;;20.85;12.98;;;9.00;99.90;;;;;;4891784;28;20024;-78
2022/04/27 06:37:27;;;;;;;18.25;12.73;;;9.20;99.90;;;;;;4892181;29;20095;-78
2022/04/27 06:39:53;;;;;;;16.95;11.20;;;9.30;99.90;;;;;;4890385;29;20036;-78
2022/04/27 06:42:20;;;;;;;21.90;12.32;;;9.40;99.90;;;;;;4902970;28;20032;-78
2022/04/27 06:44:46;;;;;;;22.45;12.27;;;9.60;99.90;;;;;;4912580;28;20038;-78
2022/04/27 06:47:11;;;;;;;16.95;10.32;;;9.80;99.90;;;;;;4909726;28;20040;-78
2022/04/27 06:49:37;;;;;;;19.25;12.70;;;9.90;99.90;;;;;;4909573;28;20557;-78
2022/04/27 06:52:03;;;;;;;18.13;12.98;;;10.10;99.90;;;;;;4905845;28;20032;-78
2022/04/27 06:54:28;;;;;;;18.58;11.50;;;10.10;99.90;;;;;;4891398;29;20064;-78
2022/04/27 06:56:54;;;;;;;17.58;12.07;;;10.30;99.90;;;;;;4910995;28;20028;-78
2022/04/27 06:59:19;;;;;;;16.20;11.43;;;10.50;99.90;;;;;;4902220;28;20039;-78
2022/04/27 07:01:45;;;;;;;17.58;12.15;;;10.60;99.90;;;;;;4892303;28;20120;-78
2022/04/27 07:04:11;;;;;;;16.05;11.15;;;10.80;99.90;;;;;;4906942;28;20036;-78
2022/04/27 07:06:37;;;;;;;14.77;11.30;;;11.00;99.90;;;;;;4901822;29;20024;-78
2022/04/27 07:09:03;;;;;;;14.15;9.35;;;11.10;99.90;;;;;;4905657;28;20055;-78
2022/04/27 07:11:29;;;;;;;16.02;11.18;;;11.20;99.90;;;;;;4892132;29;20404;-78
2022/04/27 07:13:55;;;;;;;13.10;9.18;;;11.40;99.90;;;;;;4905043;29;20033;-78
2022/04/27 07:16:20;;;;;;;16.90;9.30;;;11.50;99.90;;;;;;4877961;29;20219;-78
2022/04/27 07:18:46;;;;;;;16.02;9.73;;;11.70;99.90;;;;;;4890008;28;20123;-77
2022/04/27 07:21:11;;;;;;;12.07;8.18;;;11.90;99.90;;;;;;4906736;28;20051;-78
2022/04/27 07:23:38;;;;;;;12.18;8.63;;;12.10;99.90;;;;;;4894081;28;20119;-78
2022/04/27 07:26:06;;;;;;;14.73;9.05;;;12.20;99.90;;;;;;4889370;28;20059;-78
2022/04/27 07:28:31;;;;;;;18.42;8.45;;;12.30;99.90;;;;;;4886048;29;20051;-78
2022/04/27 07:30:57;;;;;;;12.00;8.80;;;12.40;99.90;;;;;;4908543;29;20036;-78
2022/04/27 07:33:24;;;;;;;15.20;9.18;;;12.50;99.90;;;;;;4894649;28;20036;-78
2022/04/27 07:35:49;;;;;;;15.63;8.02;;;12.60;99.90;;;;;;4903773;28;20028;-78
2022/04/27 07:38:15;;;;;;;11.23;7.57;;;12.70;99.90;;;;;;4875306;28;20036;-78
2022/04/27 07:40:41;;;;;;;16.30;8.20;;;12.90;99.90;;;;;;4892524;28;20488;-78
2022/04/27 07:43:06;;;;;;;14.40;8.50;;;13.00;99.90;;;;;;4891145;28;20067;-78
2022/04/27 07:45:32;;;;;;;14.50;7.45;;;13.10;99.90;;;;;;4909643;28;20074;-78
2022/04/27 07:47:57;;;;;;;10.75;7.20;;;13.20;99.90;;;;;;4890068;29;20547;-78
2022/04/27 07:50:23;;;;;;;15.02;7.22;;;13.40;99.90;;;;;;4894633;28;20032;-78
2022/04/27 07:52:48;;;;;;;15.30;6.55;;;13.50;99.90;;;;;;4906103;28;20056;-79
2022/04/27 07:55:14;;;;;;;10.95;6.78;;;13.60;99.90;;;;;;4891797;28;20036;-78
2022/04/27 07:57:40;;;;;;;13.52;7.85;;;13.60;99.90;;;;;;4891417;28;20036;-78
2022/04/27 08:00:07;;;;;;;9.38;7.13;;;13.70;99.90;;;;;;4905054;29;20043;-79
2022/04/27 08:02:33;;;;;;;7.97;6.75;;;13.90;99.90;;;;;;4892085;28;20405;-79
2022/04/27 08:04:58;;;;;;;15.20;6.75;;;14.00;99.90;;;;;;4894608;29;20044;-79
2022/04/27 08:07:24;;;;;;;11.30;6.53;;;14.10;99.90;;;;;;4905353;29;20041;-79
2022/04/27 08:09:49;;;;;;;8.27;6.22;;;14.30;99.90;;;;;;4902618;29;20029;-79
2022/04/27 08:12:15;;;;;;;13.93;6.88;;;14.30;99.90;;;;;;4903918;28;20115;-79
2022/04/27 08:14:40;;;;;;;9.95;6.22;;;14.40;99.90;;;;;;4904081;28;20031;-79
2022/04/27 08:17:06;;;;;;;11.93;6.82;;;14.60;99.90;;;;;;4909084;28;20420;-79
2022/04/27 08:19:31;;;;;;;9.05;6.60;;;14.60;99.90;;;;;;4887731;29;20509;-78
2022/04/27 08:21:59;;;;;;;12.88;5.82;;;14.70;99.90;;;;;;4907456;29;20334;-79
2022/04/27 08:24:24;;;;;;;7.80;5.97;;;14.70;99.90;;;;;;4890905;28;20039;-79
2022/04/27 08:26:50;;;;;;;15.52;6.95;;;14.90;99.90;;;;;;4909137;28;20036;-79
2022/04/27 08:29:16;;;;;;;11.00;6.47;;;15.10;99.90;;;;;;4891089;28;20036;-79
2022/04/27 08:31:42;;;;;;;6.85;6.15;;;15.10;99.90;;;;;;4903478;28;20029;-79
2022/04/27 08:34:07;;;;;;;7.55;6.13;;;15.30;99.90;;;;;;4903229;29;20601;-79
2022/04/27 08:36:33;;;;;;;13.23;6.35;;;15.20;99.90;;;;;;4909267;29;20069;-79
2022/04/27 08:38:59;;;;;;;9.30;6.13;;;15.30;99.90;;;;;;4903091;29;20036;-79
2022/04/27 08:41:28;;;;;;;9.52;5.93;;;15.40;99.90;;;;;;4902334;29;20532;-79
2022/04/27 08:43:54;;;;;;;13.20;6.57;;;15.50;99.90;;;;;;4903957;28;20063;-79
2022/04/27 08:46:20;;;;;;;12.05;6.45;;;15.70;99.90;;;;;;4909157;28;20063;-79
2022/04/27 08:48:47;;;;;;;10.80;6.97;;;15.70;99.90;;;;;;4877085;28;20032;-80
2022/04/27 08:51:13;;;;;;;11.63;6.07;;;15.70;99.90;;;;;;4899218;28;20123;-80
2022/04/27 08:53:38;;;;;;;10.75;6.82;;;15.80;99.90;;;;;;4889440;28;20126;-79
2022/04/27 08:56:04;;;;;;;10.90;6.03;;;15.90;99.90;;;;;;4901552;29;20028;-79
2022/04/27 08:58:30;;;;;;;8.18;5.10;;;16.20;99.90;;;;;;4876217;29;20384;-79
2022/04/27 09:00:56;;;;;;;10.50;5.43;;;16.10;99.90;;;;;;4887910;29;20040;-79
2022/04/27 09:03:28;;;;;;;8.70;5.63;;;16.20;99.90;;;;;;4886288;29;20127;-79
2022/04/27 09:05:55;;;;;;;8.90;5.68;;;16.20;99.90;;;;;;4922004;28;20192;-79
2022/04/27 09:08:21;;;;;;;7.82;5.68;;;16.20;99.90;;;;;;4907881;28;20131;-80
2022/04/27 09:10:46;;;;;;;11.70;5.57;;;16.30;99.90;;;;;;4906321;28;20159;-79
2022/04/27 09:13:12;;;;;;;7.88;5.50;;;16.40;99.90;;;;;;4902006;28;20389;-79
2022/04/27 09:15:38;;;;;;;9.55;6.20;;;16.50;99.90;;;;;;4888859;28;20572;-79
2022/04/27 09:20:58;;;;;;;10.95;5.80;;;17.00;99.90;;;;;;4907605;28;20527;-80
2022/04/27 09:23:37;;;;;;;9.75;6.40;;;17.00;99.90;;;;;;4902892;29;20095;-79
2022/04/27 09:26:18;;;;;;;9.60;6.60;;;17.00;99.90;;;;;;4889882;28;20060;-79
2022/04/27 09:28:48;;;;;;;12.55;6.22;;;17.30;99.90;;;;;;4873367;28;20042;-78
2022/04/27 09:31:30;;;;;;;10.40;6.78;;;17.40;99.90;;;;;;4907254;29;20078;-79
2022/04/27 09:36:53;;;;;;;11.20;7.82;;;17.40;99.90;;;;;;4887548;29;20236;-78
2022/04/27 09:39:23;;;;;;;8.95;6.88;;;17.60;99.90;;;;;;4906681;29;20590;-79
2022/04/27 09:41:50;;;;;;;14.70;7.05;;;17.60;99.90;;;;;;4887584;28;20776;-79
2022/04/27 09:44:32;;;;;;;10.45;6.60;;;17.60;99.90;;;;;;4888493;28;20171;-78
2022/04/27 09:46:59;;;;;;;8.55;6.95;;;17.70;99.90;;;;;;4906118;28;20650;-79
2022/04/27 09:49:27;;;;;;;12.07;7.30;;;17.80;99.90;;;;;;4888759;28;20127;-78
2022/04/27 09:51:53;;;;;;;10.68;7.50;;;17.90;99.90;;;;;;4901948;28;20032;-78
2022/04/27 09:54:20;;;;;;;12.73;7.53;;;18.00;99.90;;;;;;4904086;29;20119;-78
2022/04/27 09:56:51;;;;;;;12.23;7.03;;;18.00;99.90;;;;;;4904167;28;20054;-78
2022/04/27 09:59:18;;;;;;;7.47;6.15;;;18.20;99.90;;;;;;4902719;29;20515;-79
2022/04/27 10:01:44;;;;;;;7.45;5.85;;;18.20;99.90;;;;;;4900199;29;20039;-80
2022/04/27 10:04:10;;;;;;;8.95;6.03;;;18.10;99.20;;;;;;4891058;29;20024;-79
2022/04/27 10:06:36;;;;;;;11.25;6.85;;;18.20;98.20;;;;;;4887665;29;20131;-79
2022/04/27 10:09:02;;;;;;;8.15;5.32;;;18.20;99.90;;;;;;4900809;29;20494;-79
2022/04/27 10:11:29;;;;;;;9.38;6.72;;;18.30;99.90;;;;;;4901122;29;20047;-79
2022/04/27 10:13:54;;;;;;;11.75;6.40;;;18.70;99.90;;;;;;4905669;28;20123;-79
2022/04/27 10:16:21;;;;;;;11.07;7.85;;;18.80;99.90;;;;;;4894298;29;20139;-78
2022/04/27 10:18:47;;;;;;;11.35;7.18;;;18.80;99.90;;;;;;4894378;28;20040;-80
2022/04/27 10:21:14;;;;;;;8.10;6.30;;;18.70;99.40;;;;;;4894431;29;20055;-81
2022/04/27 10:23:43;;;;;;;11.80;6.63;;;18.60;99.20;;;;;;4910254;29;20308;-79
2022/04/27 10:26:27;;;;;;;7.95;5.78;;;18.80;96.70;;;;;;4905287;29;20334;-79
2022/04/27 10:28:57;;;;;;;8.18;6.40;;;18.90;99.90;;;;;;4909168;29;20040;-79
2022/04/27 10:31:42;;;;;;;11.55;6.63;;;19.10;99.90;;;;;;4904963;29;20409;-79
2022/04/27 10:34:21;;;;;;;16.63;6.95;;;19.10;99.90;;;;;;4902636;29;20047;-79
2022/04/27 10:36:48;;;;;;;15.35;7.55;;;19.20;98.40;;;;;;4892745;29;20084;-79
2022/04/27 10:39:16;;;;;;;11.20;6.80;;;19.20;95.90;;;;;;4909550;29;20040;-79
2022/04/27 10:41:47;;;;;;;9.88;7.28;;;19.40;95.50;;;;;;4910977;28;20060;-80
2022/04/27 10:44:13;;;;;;;10.38;6.65;;;19.40;96.30;;;;;;4887479;29;20476;-79
2022/04/27 10:46:40;;;;;;;13.85;7.72;;;19.50;95.10;;;;;;4902092;29;20028;-80
2022/04/27 10:49:24;;;;;;;9.80;5.45;;;19.50;93.10;;;;;;4905247;29;20260;-79
2022/04/27 10:52:05;;;;;;;5.20;3.88;;;19.60;95.50;;;;;;4903525;28;20492;-79
2022/04/27 10:54:32;;;;;;;6.13;4.80;;;19.80;96.90;;;;;;4897717;29;20067;-80
2022/04/27 10:57:19;;;;;;;7.97;6.15;;;20.50;96.10;;;;;;4885504;29;20032;-79
2022/04/27 10:59:45;;;;;;;8.93;7.25;;;20.20;95.20;;;;;;4906217;28;20016;-80
2022/04/27 11:02:36;;;;;;;10.35;7.15;;;20.30;95.20;;;;;;4891392;29;20088;-80
2022/04/27 11:05:02;;;;;;;5.50;4.80;;;20.30;92.50;;;;;;4907283;28;20032;-80
2022/04/27 11:07:34;;;;;;;10.57;7.28;;;20.60;93.10;;;;;;4871567;29;20040;-79
2022/04/27 11:10:16;;;;;;;7.72;4.38;;;20.80;91.00;;;;;;4889020;28;20111;-79
2022/04/27 11:12:44;;;;;;;10.90;6.32;;;20.90;92.90;;;;;;4905548;29;20500;-79
2022/04/27 11:15:11;;;;;;;10.55;7.35;;;20.80;91.20;;;;;;4903325;29;20496;-80
2022/04/27 11:17:40;;;;;;;9.10;6.25;;;21.10;91.60;;;;;;4894926;29;20040;-79
2022/04/27 11:20:21;;;;;;;8.27;5.75;;;21.40;91.40;;;;;;4874186;29;20028;-79
2022/04/27 11:22:46;;;;;;;11.15;6.68;;;21.20;91.90;;;;;;4885421;28;20111;-79
2022/04/27 11:25:12;;;;;;;8.10;6.38;;;21.30;92.40;;;;;;4902434;29;20477;-79
2022/04/27 11:27:37;;;;;;;7.00;5.22;;;21.30;91.90;;;;;;4891522;29;20036;-79
2022/04/27 11:30:04;;;;;;;9.57;7.05;;;21.50;93.00;;;;;;4889891;29;20032;-79
2022/04/27 11:32:32;;;;;;;7.45;5.90;;;21.50;90.80;;;;;;4879493;29;20036;-79
2022/04/27 11:34:58;;;;;;;9.75;6.70;;;21.50;88.70;;;;;;4879508;28;20036;-79
2022/04/27 11:37:23;;;;;;;11.63;7.20;;;21.60;88.90;;;;;;4905218;29;20043;-79
2022/04/27 11:39:49;;;;;;;9.50;6.97;;;21.90;85.60;;;;;;4887976;29;20603;-79
2022/04/27 11:42:16;;;;;;;11.80;7.85;;;21.80;81.30;;;;;;4906874;29;20067;-79
2022/04/27 11:44:42;;;;;;;10.38;7.97;;;21.50;75.10;;;;;;4895186;28;20036;-79
2022/04/27 11:47:34;;;;;;;11.57;7.45;;;21.40;76.90;;;;;;4909779;29;20448;-79
2022/04/27 11:50:01;;;;;;;10.88;7.18;;;21.50;78.20;;;;;;4894038;28;20559;-79
2022/04/27 11:52:27;;;;;;;9.63;6.72;;;21.50;79.50;;;;;;4903924;28;20066;-79
2022/04/27 11:54:56;;;;;;;6.03;4.43;;;21.50;80.50;;;;;;4905242;29;20044;-79
2022/04/27 11:57:23;;;;;;;5.90;5.05;;;21.50;84.00;;;;;;4893236;29;20035;-79
2022/04/27 11:59:56;;;;;;;8.68;6.63;;;21.90;83.10;;;;;;4899090;29;20187;-79
2022/04/27 12:02:23;;;;;;;9.95;7.15;;;22.20;82.90;;;;;;4895494;29;20044;-79
2022/04/27 12:04:49;;;;;;;10.75;8.75;;;22.20;84.60;;;;;;4879209;28;20043;-79
2022/04/27 12:07:16;;;;;;;9.68;7.85;;;22.30;78.70;;;;;;4879330;29;20070;-79
2022/04/27 12:09:41;;;;;;;10.13;9.13;;;21.90;77.50;;;;;;4888228;29;20035;-79
2022/04/27 12:12:08;;;;;;;9.18;8.20;;;22.40;69.20;;;;;;4906647;29;20412;-79
2022/04/27 12:14:35;;;;;;;13.43;10.10;;;22.30;74.40;;;;;;4888271;29;20032;-79
2022/04/27 12:17:00;;;;;;;12.32;7.35;;;22.40;74.30;;;;;;4889585;29;20069;-78
2022/04/27 12:19:29;;;;;;;12.65;8.27;;;22.50;77.30;;;;;;4894780;29;20044;-79
2022/04/27 12:22:17;;;;;;;12.02;8.48;;;22.60;76.20;;;;;;4901516;28;20465;-79
2022/04/27 12:24:44;;;;;;;7.94;6.69;;;22.70;72.00;;;;;;4565036;29;10001110;-80
2022/04/27 12:27:17;;;;;;;12.00;9.63;;;22.90;75.20;;;;;;4563595;29;10000007;-79
2022/04/27 12:29:46;;;;;;;14.18;9.95;;;22.90;68.10;;;;;;4889256;28;20033;-79
2022/04/27 12:32:12;;;;;;;9.43;8.52;;;22.90;67.30;;;;;;4900171;29;20038;-79
2022/04/27 12:37:29;;;;;;;9.75;8.35;;;23.10;71.30;;;;;;4896948;28;20115;-79
2022/04/27 12:39:55;;;;;;;7.47;6.47;;;23.20;72.50;;;;;;4903151;28;20061;-79
2022/04/27 12:42:21;;;;;;;13.10;9.70;;;23.20;73.50;;;;;;4889203;29;20139;-79
2022/04/27 12:44:46;;;;;;;9.77;8.43;;;23.50;72.40;;;;;;4888909;28;20361;-79
2022/04/27 12:47:13;;;;;;;11.98;8.43;;;23.30;67.80;;;;;;4901175;29;20033;-77
2022/04/27 12:49:43;;;;;;;13.52;9.13;;;23.40;67.20;;;;;;4891181;29;20420;-78
2022/04/27 12:52:21;;;;;;;9.30;6.43;;;23.40;66.10;;;;;;4875364;28;20040;-78
2022/04/27 12:54:48;;;;;;;8.70;5.88;;;23.60;73.20;;;;;;4904987;28;20029;-78
2022/04/27 12:57:14;;;;;;;7.63;6.68;;;23.90;73.00;;;;;;4897421;29;20135;-78
2022/04/27 12:59:55;;;;;;;8.30;5.72;;;23.90;70.40;;;;;;4873987;28;20091;-79
2022/04/27 13:02:21;;;;;;;10.70;7.93;;;24.30;69.50;;;;;;4892312;29;20123;-78
2022/04/27 13:04:47;;;;;;;8.77;7.97;;;24.00;69.70;;;;;;4907088;28;20568;-78